Time;durP1;ratioP1;P1;durP2;ratioP2;P2;SDS_P1;SDS_P2;PMS_P1;PMS_P2;Temp;Humidity;BMP_temperature;BMP_pressure;BME280_temperature;BME280_humidity;BME280_pressure;Samples;Min_cycle;Max_cycle;Signal;HPM_P1;HPM_P2
2023/06/30 00:01:36;;;;;;;6.80;5.10;;;;;;;16.20;82.11;100167.58;105472;1257;70032;-48
2023/06/30 00:04:06;;;;;;;5.50;4.80;;;;;;;16.28;82.17;100161.96;105470;1257;69976;-49
2023/06/30 00:06:34;;;;;;;7.80;5.10;;;;;;;16.33;81.95;100165.02;105469;1257;75011;-49
2023/06/30 00:09:07;;;;;;;6.60;5.50;;;;;;;16.38;81.91;100163.39;105429;1253;83343;-50
2023/06/30 00:11:38;;;;;;;7.20;5.20;;;;;;;16.44;81.82;100167.02;105432;1253;72610;-50
2023/06/30 00:14:06;;;;;;;7.90;5.50;;;;;;;16.50;81.74;100163.83;105444;1253;69889;-48
2023/06/30 00:16:35;;;;;;;6.70;5.50;;;;;;;16.53;81.46;100167.19;105386;1253;69926;-48
2023/06/30 00:19:04;;;;;;;9.00;5.50;;;;;;;16.55;81.38;100166.20;105486;1253;74768;-49
2023/06/30 00:21:33;;;;;;;7.70;5.80;;;;;;;16.58;81.36;100167.25;105473;1255;82744;-48
2023/06/30 00:24:04;;;;;;;8.00;5.60;;;;;;;16.60;81.26;100165.85;105360;1253;73888;-50
2023/06/30 00:26:32;;;;;;;8.40;6.10;;;;;;;16.61;81.19;100162.06;105421;1253;69949;-48
2023/06/30 00:29:01;;;;;;;7.20;5.30;;;;;;;16.64;81.13;100159.24;105325;1253;69939;-49
2023/06/30 00:31:30;;;;;;;8.30;5.70;;;;;;;16.67;81.16;100154.83;105395;1253;74465;-48
2023/06/30 00:33:59;;;;;;;6.80;5.60;;;;;;;16.71;81.14;100153.27;105386;1253;82829;-49
2023/06/30 00:36:31;;;;;;;7.20;5.70;;;;;;;16.75;81.06;100152.70;105166;1255;72828;-49
2023/06/30 00:39:00;;;;;;;7.70;6.20;;;;;;;16.75;80.87;100147.37;105430;1253;69984;-49
2023/06/30 00:41:29;;;;;;;6.50;5.90;;;;;;;16.76;80.83;100142.23;105459;1257;69916;-49
2023/06/30 00:43:58;;;;;;;6.50;5.40;;;;;;;16.78;81.03;100143.36;105365;1257;75119;-49
2023/06/30 00:46:26;;;;;;;7.90;5.80;;;;;;;16.82;81.12;100131.80;105402;1253;82044;-52
2023/06/30 00:48:56;;;;;;;7.20;5.60;;;;;;;16.86;81.02;100133.44;105407;1253;72877;-49
2023/06/30 00:51:24;;;;;;;7.20;5.00;;;;;;;16.89;80.85;100127.80;105427;1253;69929;-50
2023/06/30 00:53:53;;;;;;;11.40;5.20;;;;;;;16.91;80.74;100127.66;105262;1253;69966;-49
2023/06/30 00:56:21;;;;;;;6.80;5.20;;;;;;;16.92;80.68;100124.20;105227;1259;74658;-49
2023/06/30 00:58:52;;;;;;;6.10;4.90;;;;;;;16.93;80.63;100121.30;105316;1253;85041;-48
2023/06/30 01:01:24;;;;;;;6.30;5.10;;;;;;;16.96;80.79;100120.95;105400;1253;72763;-50
2023/06/30 01:04:02;;;;;;;6.00;5.40;;;;;;;16.98;80.77;100114.98;105410;1257;70019;-49
2023/06/30 01:06:33;;;;;;;7.80;5.40;;;;;;;17.00;80.79;100117.31;105452;1257;69996;-50
2023/06/30 01:09:06;;;;;;;7.10;5.30;;;;;;;17.02;80.72;100112.26;105407;1253;74789;-49
2023/06/30 01:11:35;;;;;;;7.50;4.90;;;;;;;17.02;80.70;100107.80;105388;1253;82308;-50
2023/06/30 01:14:06;;;;;;;7.50;5.20;;;;;;;17.03;80.69;100107.02;105371;1253;74201;-50
2023/06/30 01:16:35;;;;;;;8.20;5.60;;;;;;;17.04;80.91;100103.63;105453;1253;70539;-49
2023/06/30 01:19:06;;;;;;;7.90;5.60;;;;;;;17.02;80.93;100101.85;105244;1253;69981;-50
2023/06/30 01:21:35;;;;;;;7.70;5.20;;;;;;;16.98;81.01;100098.42;105391;1257;74946;-49
2023/06/30 01:24:06;;;;;;;6.60;4.50;;;;;;;16.96;81.17;100096.39;105228;1260;83276;-49
2023/06/30 01:26:35;;;;;;;8.20;5.00;;;;;;;16.96;81.09;100094.48;105424;1257;73986;-49
2023/06/30 01:29:06;;;;;;;8.30;5.90;;;;;;;16.96;81.33;100092.70;105291;1254;69972;-49
2023/06/30 01:31:36;;;;;;;5.90;5.30;;;;;;;16.98;81.39;100094.73;105437;1257;69939;-50
2023/06/30 01:34:05;;;;;;;8.30;5.10;;;;;;;16.97;81.52;100092.80;105407;1253;75288;-48
2023/06/30 01:36:33;;;;;;;6.70;5.20;;;;;;;16.96;81.46;100093.25;105483;1253;82922;-50
2023/06/30 01:39:02;;;;;;;5.90;5.30;;;;;;;16.96;81.54;100093.40;105382;1253;72840;-50
2023/06/30 01:41:31;;;;;;;6.20;5.00;;;;;;;16.95;81.81;100094.52;105402;1253;69924;-48
2023/06/30 01:44:00;;;;;;;6.90;5.10;;;;;;;16.93;81.98;100092.89;105433;1253;69892;-50
2023/06/30 01:46:28;;;;;;;7.50;5.20;;;;;;;16.92;82.08;100094.20;105430;1253;73246;-49
2023/06/30 01:48:57;;;;;;;8.30;5.50;;;;;;;16.91;82.38;100096.79;105232;1260;83520;-50
2023/06/30 01:51:25;;;;;;;8.30;5.10;;;;;;;16.90;82.58;100097.17;105397;1253;73031;-49
2023/06/30 01:53:53;;;;;;;6.30;5.10;;;;;;;16.90;82.73;100094.73;105203;1260;69863;-50
2023/06/30 01:56:22;;;;;;;7.20;5.70;;;;;;;16.89;82.97;100094.95;105346;1253;69970;-50
2023/06/30 01:58:50;;;;;;;7.90;5.60;;;;;;;16.87;83.16;100095.42;105471;1257;73327;-47
2023/06/30 02:01:18;;;;;;;8.50;5.60;;;;;;;16.85;83.15;100095.59;105364;1253;83982;-49
2023/06/30 02:03:48;;;;;;;6.90;5.10;;;;;;;16.84;83.35;100093.86;105339;1257;72466;-49
2023/06/30 02:06:17;;;;;;;7.90;5.20;;;;;;;16.83;83.41;100092.33;105456;1253;70528;-49
2023/06/30 02:08:45;;;;;;;7.20;5.10;;;;;;;16.83;83.52;100091.80;105410;1253;69879;-50
2023/06/30 02:11:15;;;;;;;8.50;5.90;;;;;;;16.84;83.62;100090.88;105449;1257;74225;-49
2023/06/30 02:13:43;;;;;;;9.30;5.10;;;;;;;16.84;83.69;100084.84;105275;1258;82383;-48
2023/06/30 02:16:11;;;;;;;6.60;5.50;;;;;;;16.86;83.93;100086.65;105294;1254;74218;-49
2023/06/30 02:18:40;;;;;;;9.20;5.80;;;;;;;16.87;84.05;100087.83;105398;1253;69769;-50
2023/06/30 02:21:08;;;;;;;6.40;4.90;;;;;;;16.90;84.14;100079.38;105406;1253;69894;-52
2023/06/30 02:23:36;;;;;;;9.60;5.30;;;;;;;16.91;84.05;100077.30;105473;1255;73823;-51
2023/06/30 02:26:05;;;;;;;5.70;5.10;;;;;;;16.95;83.95;100075.48;105443;1257;83226;-49
2023/06/30 02:28:33;;;;;;;9.20;4.60;;;;;;;16.95;83.65;100075.96;105383;1253;73513;-49
2023/06/30 02:31:01;;;;;;;11.10;5.40;;;;;;;16.97;83.29;100072.52;105485;1257;69871;-50
2023/06/30 02:33:30;;;;;;;5.30;4.60;;;;;;;17.01;82.98;100074.52;105436;1257;69866;-49
2023/06/30 02:35:59;;;;;;;8.70;4.90;;;;;;;17.06;82.83;100073.48;105489;1257;75024;-50
2023/06/30 02:38:27;;;;;;;6.00;4.40;;;;;;;17.10;82.71;100070.75;105496;1257;83310;-49
2023/06/30 02:40:56;;;;;;;7.40;5.10;;;;;;;17.13;82.43;100070.85;105424;1253;73577;-50
2023/06/30 02:43:24;;;;;;;5.70;4.50;;;;;;;17.16;82.51;100071.52;105441;1253;69928;-49
2023/06/30 02:45:53;;;;;;;6.70;5.30;;;;;;;17.19;82.51;100074.02;105500;1258;69929;-49
2023/06/30 02:48:22;;;;;;;7.10;4.70;;;;;;;17.19;82.38;100071.17;105476;1253;74581;-49
2023/06/30 02:50:50;;;;;;;6.80;5.20;;;;;;;17.21;82.52;100072.29;105447;1257;83371;-49
2023/06/30 02:53:19;;;;;;;7.20;5.00;;;;;;;17.21;82.37;100072.48;105373;1259;74033;-50
2023/06/30 02:55:48;;;;;;;5.50;4.50;;;;;;;17.22;82.44;100068.81;105446;1253;70272;-49
2023/06/30 02:58:18;;;;;;;6.50;4.90;;;;;;;17.24;82.55;100066.60;105475;1253;70010;-49
2023/06/30 03:00:46;;;;;;;9.80;5.10;;;;;;;17.23;82.09;100065.41;105502;1253;74811;-49
2023/06/30 03:03:15;;;;;;;9.70;5.10;;;;;;;17.23;81.97;100062.98;105461;1256;83082;-50
2023/06/30 03:05:45;;;;;;;5.80;5.00;;;;;;;17.25;81.69;100061.60;105483;1253;73595;-48
2023/06/30 03:08:15;;;;;;;6.20;5.20;;;;;;;17.27;81.66;100056.48;105404;1256;70018;-50
2023/06/30 03:10:44;;;;;;;5.60;4.50;;;;;;;17.29;81.79;100053.16;105451;1257;70009;-53
2023/06/30 03:13:12;;;;;;;7.10;4.90;;;;;;;17.30;81.64;100052.56;105423;1253;75080;-49
2023/06/30 03:15:41;;;;;;;6.10;5.20;;;;;;;17.32;81.54;100052.04;105438;1257;83286;-50
2023/06/30 03:18:09;;;;;;;9.30;5.50;;;;;;;17.34;81.79;100049.09;105354;1258;73754;-50
2023/06/30 03:20:38;;;;;;;6.00;4.90;;;;;;;17.35;81.77;100051.52;105301;1253;69983;-50
2023/06/30 03:23:06;;;;;;;9.20;5.50;;;;;;;17.34;82.18;100049.98;105413;1257;70020;-50
2023/06/30 03:25:35;;;;;;;7.40;5.40;;;;;;;17.32;82.17;100051.17;105248;1254;73710;-49
2023/06/30 03:28:04;;;;;;;6.10;5.50;;;;;;;17.27;82.02;100048.15;105270;1258;83408;-51
2023/06/30 03:30:32;;;;;;;5.50;4.70;;;;;;;17.25;82.18;100047.08;105473;1253;72966;-49
2023/06/30 03:33:01;;;;;;;6.70;5.30;;;;;;;17.26;82.13;100040.31;105409;1253;69817;-52
2023/06/30 03:35:29;;;;;;;7.00;5.20;;;;;;;17.30;82.31;100039.36;105465;1253;69833;-49
2023/06/30 03:37:57;;;;;;;8.00;5.10;;;;;;;17.31;82.45;100039.02;105220;1253;75161;-50
2023/06/30 03:40:26;;;;;;;9.70;5.60;;;;;;;17.31;82.57;100034.50;105451;1253;83673;-49
2023/06/30 03:42:55;;;;;;;8.20;6.00;;;;;;;17.29;82.71;100035.14;105500;1257;73408;-50
2023/06/30 03:45:23;;;;;;;7.10;5.50;;;;;;;17.27;82.97;100037.95;105502;1253;69847;-49
2023/06/30 03:47:53;;;;;;;6.30;5.60;;;;;;;17.25;83.00;100036.70;105439;1253;70248;-51
2023/06/30 03:50:21;;;;;;;6.40;5.60;;;;;;;17.23;82.90;100033.66;105455;1257;73969;-49
2023/06/30 03:52:51;;;;;;;7.60;5.40;;;;;;;17.23;82.84;100035.05;105465;1253;81800;-49
2023/06/30 03:55:19;;;;;;;8.20;5.30;;;;;;;17.27;83.05;100033.37;105412;1253;73762;-49
2023/06/30 03:57:47;;;;;;;7.90;5.20;;;;;;;17.28;83.22;100034.48;105423;1253;69904;-52
2023/06/30 04:00:16;;;;;;;6.30;5.00;;;;;;;17.29;83.18;100033.20;105306;1258;69893;-51
2023/06/30 04:02:46;;;;;;;7.00;5.10;;;;;;;17.31;83.44;100034.52;105502;1257;74757;-50
2023/06/30 04:05:15;;;;;;;6.80;5.20;;;;;;;17.35;83.46;100034.74;105472;1257;83235;-49
2023/06/30 04:07:43;;;;;;;6.50;5.40;;;;;;;17.37;83.50;100037.74;105427;1253;73627;-49
2023/06/30 04:10:12;;;;;;;6.30;5.60;;;;;;;17.39;83.41;100038.13;105389;1253;69929;-49
2023/06/30 04:12:42;;;;;;;8.00;5.30;;;;;;;17.43;83.44;100034.55;105451;1253;69984;-49
2023/06/30 04:15:10;;;;;;;8.20;5.60;;;;;;;17.47;83.57;100036.56;105443;1257;74145;-51
2023/06/30 04:17:39;;;;;;;8.40;5.60;;;;;;;17.50;83.63;100033.10;105448;1257;83829;-51
2023/06/30 04:20:09;;;;;;;5.80;5.20;;;;;;;17.52;83.50;100034.90;105452;1257;73433;-49
2023/06/30 04:22:38;;;;;;;6.50;5.20;;;;;;;17.58;83.37;100039.80;105517;1254;69924;-49
2023/06/30 04:25:07;;;;;;;10.30;5.10;;;;;;;17.64;82.75;100033.36;105461;1257;69992;-50
2023/06/30 04:27:35;;;;;;;6.80;4.40;;;;;;;17.69;82.43;100028.02;105512;1253;74661;-50
2023/06/30 04:30:06;;;;;;;6.00;4.30;;;;;;;17.77;82.33;100029.22;105459;1257;83344;-49
2023/06/30 04:32:34;;;;;;;6.10;4.60;;;;;;;17.87;82.55;100030.80;105443;1253;73845;-49
2023/06/30 04:35:03;;;;;;;7.50;4.80;;;;;;;17.95;82.42;100028.25;105463;1253;69844;-53
2023/06/30 04:37:31;;;;;;;6.90;4.60;;;;;;;18.04;82.29;100024.79;105496;1257;69951;-49
2023/06/30 04:40:00;;;;;;;7.90;4.70;;;;;;;18.11;81.82;100021.27;105429;1253;74908;-50
2023/06/30 04:42:28;;;;;;;6.30;4.80;;;;;;;18.17;81.59;100019.61;105536;1253;82467;-49
2023/06/30 04:44:56;;;;;;;7.90;5.10;;;;;;;18.21;81.56;100020.33;105479;1253;74203;-50
2023/06/30 04:47:26;;;;;;;7.00;4.40;;;;;;;18.25;81.34;100020.41;105521;1257;69996;-53
2023/06/30 04:49:55;;;;;;;6.50;4.40;;;;;;;18.29;81.15;100018.67;105495;1253;69882;-50
2023/06/30 04:52:23;;;;;;;9.20;4.90;;;;;;;18.35;81.18;100018.73;105510;1253;75232;-49
2023/06/30 04:54:51;;;;;;;5.70;4.80;;;;;;;18.41;81.35;100016.92;105483;1257;83380;-50
2023/06/30 04:57:21;;;;;;;6.60;4.90;;;;;;;18.44;81.37;100015.46;105412;1253;73876;-51
2023/06/30 04:59:52;;;;;;;6.00;4.60;;;;;;;18.46;81.04;100018.14;105481;1254;69923;-50
2023/06/30 05:02:20;;;;;;;8.10;4.80;;;;;;;18.49;81.09;100020.70;105445;1258;69935;-50
2023/06/30 05:04:49;;;;;;;5.50;4.40;;;;;;;18.54;80.86;100024.60;105456;1253;74755;-52
2023/06/30 05:07:17;;;;;;;6.30;4.70;;;;;;;18.59;80.58;100018.04;105414;1253;82923;-53
2023/06/30 05:09:46;;;;;;;7.70;5.00;;;;;;;18.63;80.30;100018.73;105461;1258;71825;-49
2023/06/30 05:12:14;;;;;;;7.30;5.10;;;;;;;18.69;80.08;100023.06;105469;1253;70000;-50
2023/06/30 05:14:43;;;;;;;10.10;5.00;;;;;;;18.75;79.91;100022.13;105491;1257;69942;-50
2023/06/30 05:17:11;;;;;;;6.10;4.00;;;;;;;18.80;79.55;100027.96;105460;1253;75236;-51
2023/06/30 05:19:41;;;;;;;5.90;4.30;;;;;;;18.85;79.43;100026.17;105401;1253;83434;-50
2023/06/30 05:22:09;;;;;;;7.90;4.80;;;;;;;18.91;79.23;100021.76;105664;1259;74084;-50
2023/06/30 05:24:38;;;;;;;7.80;5.20;;;;;;;18.98;79.18;100021.55;105636;1257;70035;-51
2023/06/30 05:27:06;;;;;;;9.40;4.60;;;;;;;19.05;79.01;100019.64;105896;1256;69970;-50
2023/06/30 05:29:35;;;;;;;7.20;4.90;;;;;;;19.09;78.79;100023.71;105631;1253;74512;-47
2023/06/30 05:32:03;;;;;;;10.20;4.70;;;;;;;19.12;78.64;100022.76;105500;1253;83653;-48
2023/06/30 05:34:32;;;;;;;5.90;4.40;;;;;;;19.17;78.67;100022.05;105611;1253;73416;-48
2023/06/30 05:37:00;;;;;;;5.90;4.20;;;;;;;19.25;78.74;100019.83;105638;1258;69887;-48
2023/06/30 05:39:29;;;;;;;10.00;5.00;;;;;;;19.33;78.57;100022.92;105531;1256;70020;-49
2023/06/30 05:41:57;;;;;;;8.40;4.50;;;;;;;19.39;78.41;100019.74;105523;1253;73808;-49
2023/06/30 05:44:25;;;;;;;7.20;4.50;;;;;;;19.45;78.04;100018.91;105492;1253;83476;-52
2023/06/30 05:46:53;;;;;;;7.90;4.30;;;;;;;19.51;78.20;100020.42;105673;1253;73996;-53
2023/06/30 05:49:22;;;;;;;6.60;4.70;;;;;;;19.63;78.16;100024.24;105665;1253;69807;-50
2023/06/30 05:51:50;;;;;;;7.80;4.20;;;;;;;19.75;78.09;100022.58;105519;1253;69864;-50
2023/06/30 05:54:19;;;;;;;7.90;4.20;;;;;;;19.88;78.01;100024.54;105536;1253;74902;-53
2023/06/30 05:56:47;;;;;;;6.70;4.70;;;;;;;20.02;77.81;100027.60;105569;1253;83822;-49
2023/06/30 05:59:15;;;;;;;5.60;4.20;;;;;;;20.13;77.50;100025.80;105493;1253;73832;-50
2023/06/30 06:01:43;;;;;;;7.90;4.90;;;;;;;20.24;77.29;100025.38;105552;1253;69952;-50
2023/06/30 06:04:12;;;;;;;6.80;4.50;;;;;;;20.33;77.11;100018.55;105579;1254;69807;-50
2023/06/30 06:06:40;;;;;;;6.50;4.50;;;;;;;20.44;77.34;100019.33;105576;1259;73602;-50
2023/06/30 06:09:09;;;;;;;9.70;4.50;;;;;;;20.58;77.14;100016.60;105550;1253;83563;-50
2023/06/30 06:11:38;;;;;;;6.50;4.10;;;;;;;20.71;76.98;100015.30;105681;1257;73107;-50
2023/06/30 06:14:06;;;;;;;8.70;4.70;;;;;;;20.81;76.61;100013.41;105680;1259;69864;-50
2023/06/30 06:16:35;;;;;;;7.20;4.20;;;;;;;20.89;76.43;100016.22;105659;1256;70763;-52
2023/06/30 06:19:03;;;;;;;5.60;4.40;;;;;;;20.98;75.93;100020.13;105685;1253;74765;-53
2023/06/30 06:21:32;;;;;;;5.90;4.50;;;;;;;21.03;75.39;100019.69;105724;1254;83170;-50
2023/06/30 06:24:00;;;;;;;7.60;4.70;;;;;;;21.05;75.14;100022.49;105702;1258;73459;-52
2023/06/30 06:26:28;;;;;;;5.10;4.30;;;;;;;21.09;74.94;100019.13;105583;1258;69063;-51
2023/06/30 06:28:56;;;;;;;7.00;4.50;;;;;;;21.20;74.93;100017.88;105515;1259;69804;-52
2023/06/30 06:31:27;;;;;;;7.30;4.70;;;;;;;21.27;74.66;100015.30;105612;1253;74704;-51
2023/06/30 06:33:55;;;;;;;9.60;5.10;;;;;;;21.36;74.64;100015.51;105752;1254;83166;-51
2023/06/30 06:36:23;;;;;;;7.10;4.40;;;;;;;21.43;74.46;100011.21;105673;1254;73418;-50
2023/06/30 06:38:52;;;;;;;7.90;4.70;;;;;;;21.44;74.03;100009.70;105603;1258;69776;-51
2023/06/30 06:41:20;;;;;;;6.50;4.50;;;;;;;21.48;74.50;100010.61;105529;1258;69119;-52
2023/06/30 06:43:49;;;;;;;7.20;4.30;;;;;;;21.50;74.66;100010.25;105641;1257;74653;-50
2023/06/30 06:46:17;;;;;;;8.30;5.00;;;;;;;21.50;74.58;100011.61;105501;1253;82543;-53
2023/06/30 06:48:45;;;;;;;7.90;4.60;;;;;;;21.52;74.66;100010.37;105584;1253;73629;-52
2023/06/30 06:51:14;;;;;;;8.70;4.80;;;;;;;21.53;74.57;100006.59;105640;1255;69197;-53
2023/06/30 06:53:42;;;;;;;7.90;4.70;;;;;;;21.53;74.51;100008.85;105598;1259;69120;-50
2023/06/30 06:56:11;;;;;;;9.80;4.80;;;;;;;21.56;74.57;100009.63;105669;1253;74916;-52
2023/06/30 06:58:39;;;;;;;4.70;3.90;;;;;;;21.62;74.64;100008.23;105546;1258;83101;-51
2023/06/30 07:01:10;;;;;;;8.00;4.60;;;;;;;21.71;74.60;100010.53;105605;1258;73308;-52
2023/06/30 07:03:38;;;;;;;4.90;4.20;;;;;;;21.81;74.61;100013.86;105530;1258;69815;-50
2023/06/30 07:06:07;;;;;;;7.10;4.60;;;;;;;21.88;74.63;100014.14;105658;1253;69821;-51
2023/06/30 07:08:36;;;;;;;4.80;4.00;;;;;;;21.97;74.62;100012.77;105662;1253;74753;-50
2023/06/30 07:11:08;;;;;;;6.20;4.30;;;;;;;22.10;74.37;100003.01;105700;1253;81729;-51
2023/06/30 07:13:38;;;;;;;7.80;4.30;;;;;;;22.21;74.26;100000.09;105413;1258;307237;-54
2023/06/30 07:16:06;;;;;;;6.30;4.70;;;;;;;22.27;73.97;99996.88;105605;1253;69046;-54
2023/06/30 07:18:35;;;;;;;7.10;4.30;;;;;;;22.33;73.68;99995.77;105696;1256;69088;-54
2023/06/30 07:21:03;;;;;;;7.30;4.60;;;;;;;22.35;73.36;99993.33;105606;1256;73011;-54
2023/06/30 07:23:32;;;;;;;5.80;4.70;;;;;;;22.38;73.67;99990.15;105688;1258;82999;-53
2023/06/30 07:26:01;;;;;;;8.90;5.20;;;;;;;22.40;73.60;99983.77;105561;1254;73676;-54
2023/06/30 07:28:31;;;;;;;10.40;5.30;;;;;;;22.40;73.56;99980.73;105631;1253;69847;-50
2023/06/30 07:31:00;;;;;;;9.80;4.40;;;;;;;22.41;73.45;99981.65;105721;1258;69979;-48
2023/06/30 07:33:28;;;;;;;7.90;4.90;;;;;;;22.46;73.17;99978.39;105770;1254;74749;-50
2023/06/30 07:35:57;;;;;;;8.50;4.90;;;;;;;22.49;73.14;99974.92;105704;1259;83525;-49
2023/06/30 07:38:25;;;;;;;7.10;4.20;;;;;;;22.55;72.79;99973.10;105720;1257;74267;-51
2023/06/30 07:40:53;;;;;;;7.20;4.60;;;;;;;22.63;72.61;99974.84;105544;1253;69059;-57
2023/06/30 07:43:24;;;;;;;5.00;3.80;;;;;;;22.70;72.48;99974.83;105622;1253;69571;-51
2023/06/30 07:45:53;;;;;;;7.90;3.80;;;;;;;22.82;72.03;99976.23;105553;1253;73950;-53
2023/06/30 07:48:21;;;;;;;6.60;3.90;;;;;;;22.96;72.12;99979.31;105526;1257;83636;-52
2023/06/30 07:50:50;;;;;;;6.20;3.80;;;;;;;23.11;72.19;99978.88;105538;1257;73661;-55
2023/06/30 07:53:21;;;;;;;6.10;4.40;;;;;;;23.25;72.00;99978.22;105298;1265;70008;-50
2023/06/30 07:55:49;;;;;;;7.80;4.00;;;;;;;23.39;71.72;99977.70;105101;1262;69363;-54
2023/06/30 07:58:18;;;;;;;8.70;4.50;;;;;;;23.49;71.44;99977.23;105221;1260;74499;-51
2023/06/30 08:00:46;;;;;;;6.20;4.20;;;;;;;23.63;71.53;99978.81;105386;1262;83083;-51
2023/06/30 08:03:14;;;;;;;7.20;4.10;;;;;;;23.74;71.07;99977.34;105143;1260;73622;-50
2023/06/30 08:05:43;;;;;;;8.10;4.30;;;;;;;23.82;70.94;99975.33;105259;1260;69932;-55
2023/06/30 08:08:13;;;;;;;7.30;5.30;;;;;;;23.91;70.57;99974.24;105234;1261;69820;-50
2023/06/30 08:10:41;;;;;;;13.90;7.70;;;;;;;23.96;70.06;99974.23;105105;1262;74025;-51
2023/06/30 08:13:12;;;;;;;17.10;9.80;;;;;;;24.12;70.15;99977.10;105507;1258;83244;-49
2023/06/30 08:15:40;;;;;;;11.10;6.50;;;;;;;24.31;69.81;99977.36;105508;1257;72778;-54
2023/06/30 08:18:11;;;;;;;14.50;8.90;;;;;;;24.44;69.11;99977.67;105320;1253;69084;-55
2023/06/30 08:20:39;;;;;;;18.20;12.30;;;;;;;24.51;68.66;99980.17;105632;1253;70512;-56
2023/06/30 08:23:10;;;;;;;12.80;9.10;;;;;;;24.64;68.20;99980.02;105791;1253;75108;-56
2023/06/30 08:25:38;;;;;;;11.20;7.10;;;;;;;24.74;67.73;99978.20;105539;1254;83713;-54
2023/06/30 08:28:07;;;;;;;6.70;4.70;;;;;;;24.79;67.52;99977.47;105575;1254;73378;-56
2023/06/30 08:30:35;;;;;;;6.70;3.90;;;;;;;24.92;67.41;99979.02;105494;1253;69135;-55
2023/06/30 08:33:03;;;;;;;5.80;3.90;;;;;;;25.04;66.72;99978.27;105498;1254;69171;-56
2023/06/30 08:35:32;;;;;;;11.00;4.10;;;;;;;25.11;66.56;99979.45;105527;1254;74599;-56
2023/06/30 08:38:01;;;;;;;7.90;4.20;;;;;;;25.20;66.58;99978.39;105442;1257;83646;-57
2023/06/30 08:40:31;;;;;;;6.80;3.70;;;;;;;25.24;66.12;99982.48;105471;1259;73141;-57
2023/06/30 08:43:03;;;;;;;8.00;3.40;;;;;;;25.22;65.77;99978.20;105511;1259;69184;-56
2023/06/30 08:45:31;;;;;;;8.10;3.60;;;;;;;25.21;65.42;99980.23;105534;1254;69095;-56
2023/06/30 08:48:04;;;;;;;5.40;3.40;;;;;;;25.20;65.17;99982.87;105548;1259;74868;-56
2023/06/30 08:50:34;;;;;;;3.70;3.20;;;;;;;25.21;64.78;99979.01;105558;1256;83353;-56
2023/06/30 08:53:04;;;;;;;6.00;3.00;;;;;;;25.19;63.95;99976.77;105556;1254;72670;-56
2023/06/30 08:55:32;;;;;;;3.80;2.50;;;;;;;25.21;63.43;99974.95;105527;1253;69086;-56
2023/06/30 08:58:01;;;;;;;5.20;2.70;;;;;;;25.23;62.50;99974.86;105563;1259;69203;-56
2023/06/30 09:00:44;;;;;;;4.10;2.70;;;;;;;25.24;62.43;99977.06;105501;1256;74239;-56
2023/06/30 09:03:13;;;;;;;5.00;2.90;;;;;;;25.24;62.20;99976.67;105592;1256;83215;-56
2023/06/30 09:05:43;;;;;;;5.00;2.80;;;;;;;25.23;61.81;99974.88;105475;1254;73473;-56
2023/06/30 09:08:16;;;;;;;3.80;2.80;;;;;;;25.24;62.15;99975.31;105447;1254;69227;-56
2023/06/30 09:10:46;;;;;;;4.90;2.90;;;;;;;25.25;62.21;99977.27;105509;1257;69085;-56
2023/06/30 09:13:17;;;;;;;7.40;4.20;;;;;;;25.23;62.06;99974.36;105473;1259;73832;-56
2023/06/30 09:15:46;;;;;;;5.40;4.70;;;;;;;25.29;61.55;99973.88;105514;1257;83424;-56
2023/06/30 09:18:15;;;;;;;;;;;;;;;25.35;61.82;99968.39;105542;1257;74382;-56
2023/06/30 09:20:43;;;;;;;5.90;3.20;;;;;;;25.32;61.80;99970.50;105576;1255;69174;-56
2023/06/30 09:23:13;;;;;;;8.20;3.30;;;;;;;25.34;61.58;99969.23;105532;1255;69119;-56
2023/06/30 09:25:41;;;;;;;4.80;3.00;;;;;;;25.31;61.40;99971.20;105551;1259;73826;-56
2023/06/30 09:28:12;;;;;;;4.70;3.00;;;;;;;25.24;61.32;99973.52;105461;1257;82505;-56
2023/06/30 09:30:45;;;;;;;4.60;2.70;;;;;;;25.18;61.51;99969.70;105493;1257;72417;-56
2023/06/30 09:33:16;;;;;;;7.00;2.90;;;;;;;25.06;61.71;99971.79;105494;1257;69305;-56
2023/06/30 09:35:46;;;;;;;2.90;2.60;;;;;;;24.91;62.20;99971.97;105499;1257;69171;-56
2023/06/30 09:38:18;;;;;;;4.10;3.00;;;;;;;24.78;63.03;99971.15;105568;1259;73794;-56
2023/06/30 09:40:48;;;;;;;16.50;7.10;;;;;;;24.68;63.20;99969.99;105562;1257;84309;-56
2023/06/30 09:43:21;;;;;;;18.10;7.50;;;;;;;24.59;64.03;99969.52;105455;1257;73708;-56
2023/06/30 09:45:57;;;;;;;12.60;5.30;;;;;;;24.49;64.30;99969.48;105580;1257;69011;-56
2023/06/30 09:48:38;;;;;;;17.50;5.00;;;;;;;24.42;63.89;99971.19;105520;1256;69185;-56
2023/06/30 09:51:07;;;;;;;23.50;5.50;;;;;;;24.38;63.62;99974.89;105552;1254;74575;-56
2023/06/30 09:53:37;;;;;;;20.90;6.50;;;;;;;24.33;63.61;99978.92;105500;1257;83292;-56
2023/06/30 09:56:06;;;;;;;14.70;7.40;;;;;;;24.26;64.86;99977.85;105540;1256;73727;-56
2023/06/30 09:58:37;;;;;;;9.70;5.10;;;;;;;24.16;65.30;99980.98;105485;1253;69085;-56
2023/06/30 10:01:07;;;;;;;31.00;11.50;;;;;;;24.07;66.16;99983.52;105503;1257;69239;-56
2023/06/30 10:03:48;;;;;;;14.50;6.60;;;;;;;23.96;67.01;99984.64;105506;1257;73885;-56
2023/06/30 10:06:20;;;;;;;9.80;5.90;;;;;;;23.83;66.05;99982.89;105502;1257;82400;-56
2023/06/30 10:08:50;;;;;;;9.90;4.20;;;;;;;23.78;66.13;99979.58;105520;1255;73418;-56
2023/06/30 10:11:21;;;;;;;7.40;4.40;;;;;;;23.79;66.11;99978.21;105549;1253;69259;-56
2023/06/30 10:13:50;;;;;;;7.90;4.50;;;;;;;23.81;66.01;99974.02;105508;1256;69215;-55
2023/06/30 10:16:21;;;;;;;10.40;4.40;;;;;;;23.82;66.18;99971.90;105528;1257;75034;-57
2023/06/30 10:18:49;;;;;;;5.30;3.80;;;;;;;23.84;66.49;99971.70;105514;1258;83364;-56
2023/06/30 10:21:17;;;;;;;6.40;4.00;;;;;;;23.84;66.30;99973.00;105490;1258;73817;-56
2023/06/30 10:23:47;;;;;;;5.30;3.80;;;;;;;23.81;66.44;99976.27;105460;1257;69148;-56
2023/06/30 10:26:19;;;;;;;7.30;3.80;;;;;;;23.82;66.68;99979.77;105515;1255;69148;-57
2023/06/30 10:28:48;;;;;;;7.20;4.00;;;;;;;23.84;66.69;99975.88;105467;1257;74554;-53
2023/06/30 10:31:17;;;;;;;6.40;4.30;;;;;;;23.85;66.57;99978.43;105562;1258;83083;-54
2023/06/30 10:33:45;;;;;;;6.70;4.00;;;;;;;23.90;66.64;99976.88;105542;1258;73365;-52
2023/06/30 10:36:15;;;;;;;6.70;3.80;;;;;;;23.96;66.47;99974.81;105535;1259;69075;-51
2023/06/30 10:38:46;;;;;;;6.70;4.40;;;;;;;24.03;66.60;99978.23;105461;1253;69170;-51
2023/06/30 10:41:19;;;;;;;6.80;4.30;;;;;;;24.07;66.07;99983.95;105562;1259;74846;-53
2023/06/30 10:44:03;;;;;;;7.90;4.60;;;;;;;24.11;66.33;99981.35;105530;1257;83097;-51
2023/06/30 10:46:46;;;;;;;7.10;3.70;;;;;;;24.15;66.01;99980.90;105510;1254;73628;-53
2023/06/30 10:49:24;;;;;;;6.60;4.00;;;;;;;24.22;66.30;99981.80;105525;1257;69159;-51
2023/06/30 10:51:54;;;;;;;4.50;3.70;;;;;;;24.23;66.59;99979.73;105496;1257;69852;-54
2023/06/30 10:54:27;;;;;;;7.00;3.90;;;;;;;24.22;66.81;99971.83;105532;1259;73923;-53
2023/06/30 10:57:05;;;;;;;6.90;3.90;;;;;;;24.25;67.25;99973.80;105507;1256;83076;-51
2023/06/30 10:59:48;;;;;;;7.20;3.70;;;;;;;24.31;67.44;99971.50;105520;1257;73966;-54
2023/06/30 11:02:19;;;;;;;6.10;3.90;;;;;;;24.31;67.17;99970.56;105544;1256;69189;-55
2023/06/30 11:04:49;;;;;;;4.20;3.50;;;;;;;24.38;67.21;99971.14;105529;1254;69843;-51
2023/06/30 11:07:26;;;;;;;6.90;3.70;;;;;;;24.42;67.34;99967.46;105514;1258;74811;-54
2023/06/30 11:09:56;;;;;;;6.10;3.40;;;;;;;24.51;67.16;99967.64;105587;1257;83310;-53
2023/06/30 11:12:49;;;;;;;4.70;3.20;;;;;;;24.62;66.99;99964.91;105489;1266;72825;-52
2023/06/30 11:15:37;;;;;;;6.30;3.30;;;;;;;24.75;66.52;99961.84;105521;1257;69158;-52
2023/06/30 11:18:17;;;;;;;6.40;3.40;;;;;;;24.93;66.27;99962.09;105572;1257;69158;-54
2023/06/30 11:21:00;;;;;;;5.40;3.50;;;;;;;25.05;65.85;99963.64;105455;1257;74563;-52
2023/06/30 11:23:38;;;;;;;5.80;3.40;;;;;;;25.10;65.24;99963.73;105528;1257;83680;-53
2023/06/30 11:26:14;;;;;;;7.80;3.40;;;;;;;25.12;64.14;99962.02;105514;1257;72711;-55
2023/06/30 11:28:49;;;;;;;6.10;3.30;;;;;;;25.10;63.72;99966.00;105524;1257;69111;-56
2023/06/30 11:31:17;;;;;;;6.90;3.40;;;;;;;25.06;63.42;99963.50;105529;1257;69797;-54